sensor_id;sensor_type;location;lat;lon;timestamp;temperature;humidity
23721;DHT22;42950;52.134;5.578;2022-12-19T00:00:03;1.50;99.90
23721;DHT22;42950;52.134;5.578;2022-12-19T00:02:31;1.50;99.90
23721;DHT22;42950;52.134;5.578;2022-12-19T00:04:56;1.50;99.90
23721;DHT22;42950;52.134;5.578;2022-12-19T00:07:22;1.50;99.90
23721;DHT22;42950;52.134;5.578;2022-12-19T00:09:47;1.50;99.90
23721;DHT22;42950;52.134;5.578;2022-12-19T00:12:13;1.50;99.90
23721;DHT22;42950;52.134;5.578;2022-12-19T00:14:39;1.50;99.90
23721;DHT22;42950;52.134;5.578;2022-12-19T00:17:04;1.50;99.90
23721;DHT22;42950;52.134;5.578;2022-12-19T00:19:30;1.50;99.90
23721;DHT22;42950;52.134;5.578;2022-12-19T00:21:56;1.50;99.90
23721;DHT22;42950;52.134;5.578;2022-12-19T00:24:21;1.50;99.90
23721;DHT22;42950;52.134;5.578;2022-12-19T00:26:47;1.50;99.90
23721;DHT22;42950;52.134;5.578;2022-12-19T00:29:13;1.50;99.90
23721;DHT22;42950;52.134;5.578;2022-12-19T00:31:39;1.60;99.90
23721;DHT22;42950;52.134;5.578;2022-12-19T00:34:04;1.60;99.90
23721;DHT22;42950;52.134;5.578;2022-12-19T00:36:32;1.60;99.90
23721;DHT22;42950;52.134;5.578;2022-12-19T00:39:00;1.60;99.90
23721;DHT22;42950;52.134;5.578;2022-12-19T00:41:28;1.60;99.90
23721;DHT22;42950;52.134;5.578;2022-12-19T00:44:00;1.60;99.90
23721;DHT22;42950;52.134;5.578;2022-12-19T00:46:28;1.70;99.90
23721;DHT22;42950;52.134;5.578;2022-12-19T00:48:54;1.70;99.90
23721;DHT22;42950;52.134;5.578;2022-12-19T00:51:23;1.70;99.90
23721;DHT22;42950;52.134;5.578;2022-12-19T00:53:50;1.80;99.90
23721;DHT22;42950;52.134;5.578;2022-12-19T00:56:18;1.80;99.90
23721;DHT22;42950;52.134;5.578;2022-12-19T00:58:44;1.80;99.90
23721;DHT22;42950;52.134;5.578;2022-12-19T01:01:22;1.90;99.90
23721;DHT22;42950;52.134;5.578;2022-12-19T01:03:48;1.90;99.90
23721;DHT22;42950;52.134;5.578;2022-12-19T01:06:14;1.90;99.90
23721;DHT22;42950;52.134;5.578;2022-12-19T01:08:40;2.00;99.90
23721;DHT22;42950;52.134;5.578;2022-12-19T01:11:07;2.00;99.90
23721;DHT22;42950;52.134;5.578;2022-12-19T01:13:34;2.00;99.90
23721;DHT22;42950;52.134;5.578;2022-12-19T01:16:08;2.00;99.90
23721;DHT22;42950;52.134;5.578;2022-12-19T01:18:35;2.00;99.90
23721;DHT22;42950;52.134;5.578;2022-12-19T01:21:04;2.00;99.90
23721;DHT22;42950;52.134;5.578;2022-12-19T01:23:31;2.00;99.90
23721;DHT22;42950;52.134;5.578;2022-12-19T01:25:57;2.00;99.90
23721;DHT22;42950;52.134;5.578;2022-12-19T01:28:23;2.10;99.90
23721;DHT22;42950;52.134;5.578;2022-12-19T01:30:49;2.10;99.90
23721;DHT22;42950;52.134;5.578;2022-12-19T01:33:16;2.20;99.90
23721;DHT22;42950;52.134;5.578;2022-12-19T01:35:44;2.20;99.90
23721;DHT22;42950;52.134;5.578;2022-12-19T01:38:13;2.20;99.90
23721;DHT22;42950;52.134;5.578;2022-12-19T01:40:39;2.20;99.90
23721;DHT22;42950;52.134;5.578;2022-12-19T01:43:08;2.30;99.90
23721;DHT22;42950;52.134;5.578;2022-12-19T01:45:38;2.30;99.90
23721;DHT22;42950;52.134;5.578;2022-12-19T01:53:16;2.30;99.90
23721;DHT22;42950;52.134;5.578;2022-12-19T01:55:43;2.40;99.90
23721;DHT22;42950;52.134;5.578;2022-12-19T01:58:10;2.30;99.90
23721;DHT22;42950;52.134;5.578;2022-12-19T02:00:39;2.40;99.90
23721;DHT22;42950;52.134;5.578;2022-12-19T02:03:18;2.40;99.90
23721;DHT22;42950;52.134;5.578;2022-12-19T02:05:45;2.40;99.90
23721;DHT22;42950;52.134;5.578;2022-12-19T02:08:11;2.40;99.90
23721;DHT22;42950;52.134;5.578;2022-12-19T02:10:37;2.40;99.90
23721;DHT22;42950;52.134;5.578;2022-12-19T02:13:04;2.50;99.90
23721;DHT22;42950;52.134;5.578;2022-12-19T02:15:32;2.50;99.90
23721;DHT22;42950;52.134;5.578;2022-12-19T02:18:20;2.50;99.90
23721;DHT22;42950;52.134;5.578;2022-12-19T02:21:12;2.50;99.90
23721;DHT22;42950;52.134;5.578;2022-12-19T02:23:53;2.60;99.90
23721;DHT22;42950;52.134;5.578;2022-12-19T02:40:38;2.80;99.90
23721;DHT22;42950;52.134;5.578;2022-12-19T02:43:06;2.80;99.90
23721;DHT22;42950;52.134;5.578;2022-12-19T02:45:36;2.80;99.90
23721;DHT22;42950;52.134;5.578;2022-12-19T02:48:04;2.80;99.90
23721;DHT22;42950;52.134;5.578;2022-12-19T02:50:41;2.90;99.90
23721;DHT22;42950;52.134;5.578;2022-12-19T02:53:12;2.90;99.90
23721;DHT22;42950;52.134;5.578;2022-12-19T02:56:05;2.90;99.90
23721;DHT22;42950;52.134;5.578;2022-12-19T02:58:47;2.90;99.90
23721;DHT22;42950;52.134;5.578;2022-12-19T03:01:44;2.90;99.90
23721;DHT22;42950;52.134;5.578;2022-12-19T03:12:57;3.00;99.90
23721;DHT22;42950;52.134;5.578;2022-12-19T03:15:25;3.00;99.90
23721;DHT22;42950;52.134;5.578;2022-12-19T03:17:56;3.00;99.90
23721;DHT22;42950;52.134;5.578;2022-12-19T03:22:52;3.10;99.90
23721;DHT22;42950;52.134;5.578;2022-12-19T03:25:19;3.10;99.90
23721;DHT22;42950;52.134;5.578;2022-12-19T03:27:48;3.20;99.90
23721;DHT22;42950;52.134;5.578;2022-12-19T03:30:14;3.20;99.90
23721;DHT22;42950;52.134;5.578;2022-12-19T03:32:42;3.30;99.90
23721;DHT22;42950;52.134;5.578;2022-12-19T03:35:16;3.30;99.90
23721;DHT22;42950;52.134;5.578;2022-12-19T03:37:43;3.30;99.90
23721;DHT22;42950;52.134;5.578;2022-12-19T03:40:14;3.40;99.90
23721;DHT22;42950;52.134;5.578;2022-12-19T03:42:41;3.40;99.90
23721;DHT22;42950;52.134;5.578;2022-12-19T03:45:54;3.40;99.90
23721;DHT22;42950;52.134;5.578;2022-12-19T03:48:35;3.40;99.90
23721;DHT22;42950;52.134;5.578;2022-12-19T03:51:39;3.50;99.90
23721;DHT22;42950;52.134;5.578;2022-12-19T03:54:15;3.50;99.90
23721;DHT22;42950;52.134;5.578;2022-12-19T03:57:09;3.50;99.90
23721;DHT22;42950;52.134;5.578;2022-12-19T03:59:44;3.60;99.90
23721;DHT22;42950;52.134;5.578;2022-12-19T04:02:17;3.60;99.90
23721;DHT22;42950;52.134;5.578;2022-12-19T04:04:47;3.70;99.90
23721;DHT22;42950;52.134;5.578;2022-12-19T04:07:14;3.70;99.90
23721;DHT22;42950;52.134;5.578;2022-12-19T04:09:42;3.80;99.90
23721;DHT22;42950;52.134;5.578;2022-12-19T04:12:24;3.90;99.90
23721;DHT22;42950;52.134;5.578;2022-12-19T04:14:51;3.90;99.90
23721;DHT22;42950;52.134;5.578;2022-12-19T04:17:39;3.90;99.90
23721;DHT22;42950;52.134;5.578;2022-12-19T04:20:14;4.00;99.90
23721;DHT22;42950;52.134;5.578;2022-12-19T04:23:25;4.00;99.90
23721;DHT22;42950;52.134;5.578;2022-12-19T04:25:55;4.00;99.90
23721;DHT22;42950;52.134;5.578;2022-12-19T04:28:33;4.10;99.90
23721;DHT22;42950;52.134;5.578;2022-12-19T04:31:01;4.10;99.90
23721;DHT22;42950;52.134;5.578;2022-12-19T04:33:27;4.10;99.90
23721;DHT22;42950;52.134;5.578;2022-12-19T04:35:53;4.10;99.90
23721;DHT22;42950;52.134;5.578;2022-12-19T04:38:19;4.20;99.90
23721;DHT22;42950;52.134;5.578;2022-12-19T04:40:47;4.20;99.90
23721;DHT22;42950;52.134;5.578;2022-12-19T04:43:13;4.20;99.90
23721;DHT22;42950;52.134;5.578;2022-12-19T04:45:42;4.20;99.90
23721;DHT22;42950;52.134;5.578;2022-12-19T04:48:08;4.20;99.90
23721;DHT22;42950;52.134;5.578;2022-12-19T04:50:34;4.20;99.90
23721;DHT22;42950;52.134;5.578;2022-12-19T04:53:00;4.30;99.90
23721;DHT22;42950;52.134;5.578;2022-12-19T04:55:27;4.30;99.90
23721;DHT22;42950;52.134;5.578;2022-12-19T04:57:52;4.30;99.90
23721;DHT22;42950;52.134;5.578;2022-12-19T05:00:18;4.30;99.90
23721;DHT22;42950;52.134;5.578;2022-12-19T05:02:44;4.40;99.90
23721;DHT22;42950;52.134;5.578;2022-12-19T05:05:10;4.30;99.90
23721;DHT22;42950;52.134;5.578;2022-12-19T05:07:36;4.40;99.90
23721;DHT22;42950;52.134;5.578;2022-12-19T05:10:02;4.50;99.90
23721;DHT22;42950;52.134;5.578;2022-12-19T05:12:29;4.50;99.90
23721;DHT22;42950;52.134;5.578;2022-12-19T05:14:56;4.50;99.90
23721;DHT22;42950;52.134;5.578;2022-12-19T05:17:22;4.60;99.90
23721;DHT22;42950;52.134;5.578;2022-12-19T05:19:48;4.60;99.90
23721;DHT22;42950;52.134;5.578;2022-12-19T05:22:14;4.60;99.90
23721;DHT22;42950;52.134;5.578;2022-12-19T05:24:40;4.60;99.90
23721;DHT22;42950;52.134;5.578;2022-12-19T05:27:06;4.60;99.90
23721;DHT22;42950;52.134;5.578;2022-12-19T05:29:32;4.70;99.90
23721;DHT22;42950;52.134;5.578;2022-12-19T05:31:59;4.70;99.90
23721;DHT22;42950;52.134;5.578;2022-12-19T05:34:24;4.80;99.90
23721;DHT22;42950;52.134;5.578;2022-12-19T05:36:51;4.90;99.90
23721;DHT22;42950;52.134;5.578;2022-12-19T05:39:18;5.00;99.90
23721;DHT22;42950;52.134;5.578;2022-12-19T05:41:44;5.00;99.90
23721;DHT22;42950;52.134;5.578;2022-12-19T05:44:10;5.00;99.90
23721;DHT22;42950;52.134;5.578;2022-12-19T05:46:36;5.00;99.90
23721;DHT22;42950;52.134;5.578;2022-12-19T05:49:02;5.10;99.90
23721;DHT22;42950;52.134;5.578;2022-12-19T05:51:28;5.20;99.90
23721;DHT22;42950;52.134;5.578;2022-12-19T05:53:54;5.10;99.90
23721;DHT22;42950;52.134;5.578;2022-12-19T05:56:21;5.20;99.90
23721;DHT22;42950;52.134;5.578;2022-12-19T05:58:48;5.20;99.90
23721;DHT22;42950;52.134;5.578;2022-12-19T06:01:20;5.30;99.90
23721;DHT22;42950;52.134;5.578;2022-12-19T06:03:46;5.30;99.90
23721;DHT22;42950;52.134;5.578;2022-12-19T06:06:17;5.30;99.90
23721;DHT22;42950;52.134;5.578;2022-12-19T06:08:43;5.30;99.90
23721;DHT22;42950;52.134;5.578;2022-12-19T06:11:10;5.40;99.90
23721;DHT22;42950;52.134;5.578;2022-12-19T06:13:36;5.40;99.90
23721;DHT22;42950;52.134;5.578;2022-12-19T06:16:06;5.50;99.90
23721;DHT22;42950;52.134;5.578;2022-12-19T06:18:33;5.50;99.90
23721;DHT22;42950;52.134;5.578;2022-12-19T06:21:01;5.50;99.90
23721;DHT22;42950;52.134;5.578;2022-12-19T06:23:29;5.60;99.90
23721;DHT22;42950;52.134;5.578;2022-12-19T06:25:56;5.70;99.90
23721;DHT22;42950;52.134;5.578;2022-12-19T06:28:24;5.70;99.90
23721;DHT22;42950;52.134;5.578;2022-12-19T06:30:50;5.70;99.90
23721;DHT22;42950;52.134;5.578;2022-12-19T06:33:16;5.80;99.90
23721;DHT22;42950;52.134;5.578;2022-12-19T06:35:42;5.80;99.90
23721;DHT22;42950;52.134;5.578;2022-12-19T06:38:08;5.80;99.90
23721;DHT22;42950;52.134;5.578;2022-12-19T06:40:34;5.90;99.90
23721;DHT22;42950;52.134;5.578;2022-12-19T06:43:18;6.00;99.90
23721;DHT22;42950;52.134;5.578;2022-12-19T06:45:44;6.00;99.90
23721;DHT22;42950;52.134;5.578;2022-12-19T06:48:09;6.10;99.90
23721;DHT22;42950;52.134;5.578;2022-12-19T06:50:35;6.20;99.90
23721;DHT22;42950;52.134;5.578;2022-12-19T06:53:01;6.20;99.90
23721;DHT22;42950;52.134;5.578;2022-12-19T06:55:30;6.30;99.90
23721;DHT22;42950;52.134;5.578;2022-12-19T06:57:56;6.40;99.90
23721;DHT22;42950;52.134;5.578;2022-12-19T07:00:22;6.50;99.90
23721;DHT22;42950;52.134;5.578;2022-12-19T07:02:49;6.50;99.90
23721;DHT22;42950;52.134;5.578;2022-12-19T07:05:15;6.50;99.90
23721;DHT22;42950;52.134;5.578;2022-12-19T07:07:41;6.60;99.90
23721;DHT22;42950;52.134;5.578;2022-12-19T07:10:08;6.60;99.90
23721;DHT22;42950;52.134;5.578;2022-12-19T07:12:33;6.60;99.90
23721;DHT22;42950;52.134;5.578;2022-12-19T07:15:00;6.70;99.90
23721;DHT22;42950;52.134;5.578;2022-12-19T07:17:27;6.70;99.90
23721;DHT22;42950;52.134;5.578;2022-12-19T07:19:53;6.80;99.90
23721;DHT22;42950;52.134;5.578;2022-12-19T07:22:20;6.80;99.90
23721;DHT22;42950;52.134;5.578;2022-12-19T07:24:46;6.80;99.90
23721;DHT22;42950;52.134;5.578;2022-12-19T07:27:11;6.90;99.90
23721;DHT22;42950;52.134;5.578;2022-12-19T07:29:37;6.80;99.90
23721;DHT22;42950;52.134;5.578;2022-12-19T07:32:03;6.80;99.90
23721;DHT22;42950;52.134;5.578;2022-12-19T07:34:28;6.90;99.90
23721;DHT22;42950;52.134;5.578;2022-12-19T07:36:54;7.00;99.90
23721;DHT22;42950;52.134;5.578;2022-12-19T07:39:20;7.00;99.90
23721;DHT22;42950;52.134;5.578;2022-12-19T07:41:46;7.10;99.90
23721;DHT22;42950;52.134;5.578;2022-12-19T07:44:12;7.10;99.90
23721;DHT22;42950;52.134;5.578;2022-12-19T07:46:38;7.10;99.90
23721;DHT22;42950;52.134;5.578;2022-12-19T07:49:04;7.10;99.90
23721;DHT22;42950;52.134;5.578;2022-12-19T07:51:29;7.10;99.90
23721;DHT22;42950;52.134;5.578;2022-12-19T07:53:55;7.10;99.90
23721;DHT22;42950;52.134;5.578;2022-12-19T07:56:20;7.10;99.90
23721;DHT22;42950;52.134;5.578;2022-12-19T07:58:46;7.10;99.90
23721;DHT22;42950;52.134;5.578;2022-12-19T08:01:11;7.10;99.90
23721;DHT22;42950;52.134;5.578;2022-12-19T08:03:37;7.10;99.90
23721;DHT22;42950;52.134;5.578;2022-12-19T08:06:04;7.20;99.90
23721;DHT22;42950;52.134;5.578;2022-12-19T08:08:30;7.30;99.90
23721;DHT22;42950;52.134;5.578;2022-12-19T08:11:06;7.20;99.90
23721;DHT22;42950;52.134;5.578;2022-12-19T08:13:34;7.30;99.90
23721;DHT22;42950;52.134;5.578;2022-12-19T08:16:00;7.30;99.90
23721;DHT22;42950;52.134;5.578;2022-12-19T08:18:25;7.30;99.90
23721;DHT22;42950;52.134;5.578;2022-12-19T08:20:51;7.30;99.90
23721;DHT22;42950;52.134;5.578;2022-12-19T08:23:16;7.40;99.90
23721;DHT22;42950;52.134;5.578;2022-12-19T08:25:42;7.30;99.90
23721;DHT22;42950;52.134;5.578;2022-12-19T08:28:07;7.40;99.90
23721;DHT22;42950;52.134;5.578;2022-12-19T08:30:33;7.40;99.90
23721;DHT22;42950;52.134;5.578;2022-12-19T08:32:59;7.50;99.90
23721;DHT22;42950;52.134;5.578;2022-12-19T08:35:24;7.50;99.90
23721;DHT22;42950;52.134;5.578;2022-12-19T08:37:50;7.60;99.90
23721;DHT22;42950;52.134;5.578;2022-12-19T08:40:15;7.60;99.90
23721;DHT22;42950;52.134;5.578;2022-12-19T08:42:41;7.60;99.90
23721;DHT22;42950;52.134;5.578;2022-12-19T08:45:07;7.60;99.90
23721;DHT22;42950;52.134;5.578;2022-12-19T08:47:32;7.60;99.90
23721;DHT22;42950;52.134;5.578;2022-12-19T08:49:58;7.60;99.90
23721;DHT22;42950;52.134;5.578;2022-12-19T08:52:23;7.70;99.90
23721;DHT22;42950;52.134;5.578;2022-12-19T08:54:49;7.70;99.90
23721;DHT22;42950;52.134;5.578;2022-12-19T08:57:14;7.70;99.90
23721;DHT22;42950;52.134;5.578;2022-12-19T08:59:40;7.80;99.90
23721;DHT22;42950;52.134;5.578;2022-12-19T09:02:05;7.70;99.90
23721;DHT22;42950;52.134;5.578;2022-12-19T09:04:31;7.70;99.90
23721;DHT22;42950;52.134;5.578;2022-12-19T09:06:56;7.70;99.90
23721;DHT22;42950;52.134;5.578;2022-12-19T09:09:22;7.70;99.90
23721;DHT22;42950;52.134;5.578;2022-12-19T09:11:47;7.70;99.90
23721;DHT22;42950;52.134;5.578;2022-12-19T09:14:13;7.70;99.90
23721;DHT22;42950;52.134;5.578;2022-12-19T09:16:38;7.70;99.90
23721;DHT22;42950;52.134;5.578;2022-12-19T09:19:04;7.70;99.90
23721;DHT22;42950;52.134;5.578;2022-12-19T09:21:30;7.80;99.90
23721;DHT22;42950;52.134;5.578;2022-12-19T09:23:57;7.70;99.90
23721;DHT22;42950;52.134;5.578;2022-12-19T09:26:25;7.80;99.90
23721;DHT22;42950;52.134;5.578;2022-12-19T09:28:51;7.80;99.90
23721;DHT22;42950;52.134;5.578;2022-12-19T09:31:19;7.80;99.90
23721;DHT22;42950;52.134;5.578;2022-12-19T09:33:45;7.80;99.90
23721;DHT22;42950;52.134;5.578;2022-12-19T09:36:17;7.90;99.90
23721;DHT22;42950;52.134;5.578;2022-12-19T09:38:42;7.90;99.90
23721;DHT22;42950;52.134;5.578;2022-12-19T09:46:50;7.90;99.90
23721;DHT22;42950;52.134;5.578;2022-12-19T09:49:21;7.90;99.90
23721;DHT22;42950;52.134;5.578;2022-12-19T09:55:04;8.00;99.90
23721;DHT22;42950;52.134;5.578;2022-12-19T09:57:56;8.00;99.90
23721;DHT22;42950;52.134;5.578;2022-12-19T10:00:31;8.00;99.90
23721;DHT22;42950;52.134;5.578;2022-12-19T10:05:35;8.00;99.90
23721;DHT22;42950;52.134;5.578;2022-12-19T10:08:08;8.00;99.90
23721;DHT22;42950;52.134;5.578;2022-12-19T10:19:34;8.20;99.90
23721;DHT22;42950;52.134;5.578;2022-12-19T10:22:12;8.20;99.90
23721;DHT22;42950;52.134;5.578;2022-12-19T10:25:07;8.20;99.90
23721;DHT22;42950;52.134;5.578;2022-12-19T10:27:50;8.20;99.90
23721;DHT22;42950;52.134;5.578;2022-12-19T10:30:19;8.30;99.90
23721;DHT22;42950;52.134;5.578;2022-12-19T10:35:16;8.30;99.90
23721;DHT22;42950;52.134;5.578;2022-12-19T10:45:59;8.40;99.90
23721;DHT22;42950;52.134;5.578;2022-12-19T10:48:27;8.40;99.90
23721;DHT22;42950;52.134;5.578;2022-12-19T10:50:53;8.50;99.90
23721;DHT22;42950;52.134;5.578;2022-12-19T10:53:26;8.50;99.90
23721;DHT22;42950;52.134;5.578;2022-12-19T10:55:53;8.50;99.90
23721;DHT22;42950;52.134;5.578;2022-12-19T10:58:35;8.50;99.90
23721;DHT22;42950;52.134;5.578;2022-12-19T11:03:52;8.60;99.90
23721;DHT22;42950;52.134;5.578;2022-12-19T11:06:43;8.60;99.90
23721;DHT22;42950;52.134;5.578;2022-12-19T11:09:40;8.60;99.90
23721;DHT22;42950;52.134;5.578;2022-12-19T11:14:34;8.70;99.90
23721;DHT22;42950;52.134;5.578;2022-12-19T11:17:00;8.70;99.90
23721;DHT22;42950;52.134;5.578;2022-12-19T11:19:34;8.60;99.90
23721;DHT22;42950;52.134;5.578;2022-12-19T11:22:06;8.70;99.90
23721;DHT22;42950;52.134;5.578;2022-12-19T11:24:44;8.60;99.90
23721;DHT22;42950;52.134;5.578;2022-12-19T11:27:41;8.70;99.90
23721;DHT22;42950;52.134;5.578;2022-12-19T11:30:27;8.70;99.90
23721;DHT22;42950;52.134;5.578;2022-12-19T11:33:17;8.80;99.90
23721;DHT22;42950;52.134;5.578;2022-12-19T11:35:54;8.80;99.90
23721;DHT22;42950;52.134;5.578;2022-12-19T11:38:31;8.80;99.90
23721;DHT22;42950;52.134;5.578;2022-12-19T11:41:03;8.80;99.90
23721;DHT22;42950;52.134;5.578;2022-12-19T11:43:33;8.80;99.90
23721;DHT22;42950;52.134;5.578;2022-12-19T11:49:33;8.80;99.90
23721;DHT22;42950;52.134;5.578;2022-12-19T11:52:19;8.80;99.90
23721;DHT22;42950;52.134;5.578;2022-12-19T11:55:00;8.70;99.90
23721;DHT22;42950;52.134;5.578;2022-12-19T11:57:28;8.80;99.90
23721;DHT22;42950;52.134;5.578;2022-12-19T11:59:54;8.80;99.90
23721;DHT22;42950;52.134;5.578;2022-12-19T12:08:52;8.90;99.90
23721;DHT22;42950;52.134;5.578;2022-12-19T12:11:25;8.90;99.90
23721;DHT22;42950;52.134;5.578;2022-12-19T12:28:44;9.10;99.90
23721;DHT22;42950;52.134;5.578;2022-12-19T12:36:21;9.10;99.90
23721;DHT22;42950;52.134;5.578;2022-12-19T12:39:07;9.10;99.90
23721;DHT22;42950;52.134;5.578;2022-12-19T12:44:40;9.10;99.90
23721;DHT22;42950;52.134;5.578;2022-12-19T12:47:32;9.20;99.90
23721;DHT22;42950;52.134;5.578;2022-12-19T12:50:02;9.20;99.90
23721;DHT22;42950;52.134;5.578;2022-12-19T12:52:33;9.30;99.90
23721;DHT22;42950;52.134;5.578;2022-12-19T12:55:02;9.30;99.90
23721;DHT22;42950;52.134;5.578;2022-12-19T13:00:31;9.40;99.90
23721;DHT22;42950;52.134;5.578;2022-12-19T13:03:15;9.40;99.90
23721;DHT22;42950;52.134;5.578;2022-12-19T13:11:10;9.50;99.90
23721;DHT22;42950;52.134;5.578;2022-12-19T13:14:05;9.50;99.90
23721;DHT22;42950;52.134;5.578;2022-12-19T13:16:50;9.60;99.90
23721;DHT22;42950;52.134;5.578;2022-12-19T13:24:54;9.60;99.90
23721;DHT22;42950;52.134;5.578;2022-12-19T13:40:11;9.70;99.90
23721;DHT22;42950;52.134;5.578;2022-12-19T13:42:46;9.70;99.90
23721;DHT22;42950;52.134;5.578;2022-12-19T13:45:33;9.70;99.90
23721;DHT22;42950;52.134;5.578;2022-12-19T13:48:00;9.70;99.90
23721;DHT22;42950;52.134;5.578;2022-12-19T13:50:37;9.70;99.90
23721;DHT22;42950;52.134;5.578;2022-12-19T13:53:18;9.70;99.90
23721;DHT22;42950;52.134;5.578;2022-12-19T13:55:44;9.80;99.90
23721;DHT22;42950;52.134;5.578;2022-12-19T13:58:46;9.70;99.90
23721;DHT22;42950;52.134;5.578;2022-12-19T14:01:21;9.80;99.90
23721;DHT22;42950;52.134;5.578;2022-12-19T14:03:49;9.70;99.90
23721;DHT22;42950;52.134;5.578;2022-12-19T14:06:26;9.80;99.90
23721;DHT22;42950;52.134;5.578;2022-12-19T14:08:55;9.80;99.90
23721;DHT22;42950;52.134;5.578;2022-12-19T14:11:22;9.80;99.90
23721;DHT22;42950;52.134;5.578;2022-12-19T14:13:55;9.70;99.90
23721;DHT22;42950;52.134;5.578;2022-12-19T14:16:39;9.70;99.90
23721;DHT22;42950;52.134;5.578;2022-12-19T14:19:23;9.80;99.90
23721;DHT22;42950;52.134;5.578;2022-12-19T14:21:50;9.80;99.90
23721;DHT22;42950;52.134;5.578;2022-12-19T14:24:21;9.80;99.90
23721;DHT22;42950;52.134;5.578;2022-12-19T14:26:55;9.80;99.90
23721;DHT22;42950;52.134;5.578;2022-12-19T14:29:34;9.80;99.90
23721;DHT22;42950;52.134;5.578;2022-12-19T14:32:01;9.70;99.90
23721;DHT22;42950;52.134;5.578;2022-12-19T14:34:30;9.70;99.90
23721;DHT22;42950;52.134;5.578;2022-12-19T14:36:57;9.80;99.90
23721;DHT22;42950;52.134;5.578;2022-12-19T14:39:32;9.70;99.90
23721;DHT22;42950;52.134;5.578;2022-12-19T14:42:05;9.70;99.90
23721;DHT22;42950;52.134;5.578;2022-12-19T14:44:54;9.80;99.90
23721;DHT22;42950;52.134;5.578;2022-12-19T14:47:32;9.80;99.90
23721;DHT22;42950;52.134;5.578;2022-12-19T14:49:58;9.80;99.90
23721;DHT22;42950;52.134;5.578;2022-12-19T14:52:50;9.70;99.90
23721;DHT22;42950;52.134;5.578;2022-12-19T14:55:31;9.80;99.90
23721;DHT22;42950;52.134;5.578;2022-12-19T14:57:57;9.80;99.90
23721;DHT22;42950;52.134;5.578;2022-12-19T15:00:32;9.80;99.90
23721;DHT22;42950;52.134;5.578;2022-12-19T15:03:06;9.80;99.90
23721;DHT22;42950;52.134;5.578;2022-12-19T15:05:31;9.70;99.90
23721;DHT22;42950;52.134;5.578;2022-12-19T15:07:58;9.80;99.90
23721;DHT22;42950;52.134;5.578;2022-12-19T15:10:27;9.80;99.90
23721;DHT22;42950;52.134;5.578;2022-12-19T15:16:01;9.80;99.90
23721;DHT22;42950;52.134;5.578;2022-12-19T15:18:39;9.90;99.90
23721;DHT22;42950;52.134;5.578;2022-12-19T15:21:10;9.80;99.90
23721;DHT22;42950;52.134;5.578;2022-12-19T15:23:36;9.90;99.90
23721;DHT22;42950;52.134;5.578;2022-12-19T15:26:06;9.80;99.90
23721;DHT22;42950;52.134;5.578;2022-12-19T15:28:40;9.80;99.90
23721;DHT22;42950;52.134;5.578;2022-12-19T15:31:24;9.80;99.90
23721;DHT22;42950;52.134;5.578;2022-12-19T15:33:51;9.80;99.90
23721;DHT22;42950;52.134;5.578;2022-12-19T15:36:17;9.80;99.90
23721;DHT22;42950;52.134;5.578;2022-12-19T15:38:42;9.80;99.90
23721;DHT22;42950;52.134;5.578;2022-12-19T15:41:11;9.70;99.90
23721;DHT22;42950;52.134;5.578;2022-12-19T15:43:39;9.70;99.90
23721;DHT22;42950;52.134;5.578;2022-12-19T15:46:05;9.70;99.90
23721;DHT22;42950;52.134;5.578;2022-12-19T15:48:30;9.60;99.90
23721;DHT22;42950;52.134;5.578;2022-12-19T15:50:57;9.60;99.90
23721;DHT22;42950;52.134;5.578;2022-12-19T15:53:25;9.50;99.90
23721;DHT22;42950;52.134;5.578;2022-12-19T15:55:52;9.50;99.90
23721;DHT22;42950;52.134;5.578;2022-12-19T15:58:19;9.50;99.90
23721;DHT22;42950;52.134;5.578;2022-12-19T16:00:53;9.50;99.90
23721;DHT22;42950;52.134;5.578;2022-12-19T16:03:20;9.50;99.90
23721;DHT22;42950;52.134;5.578;2022-12-19T16:05:46;9.60;99.90
23721;DHT22;42950;52.134;5.578;2022-12-19T16:08:15;9.60;99.90
23721;DHT22;42950;52.134;5.578;2022-12-19T16:10:43;9.60;99.90
23721;DHT22;42950;52.134;5.578;2022-12-19T16:13:21;9.60;99.90
23721;DHT22;42950;52.134;5.578;2022-12-19T16:15:47;9.60;99.90
23721;DHT22;42950;52.134;5.578;2022-12-19T16:18:13;9.60;99.90
23721;DHT22;42950;52.134;5.578;2022-12-19T16:20:40;9.60;99.90
23721;DHT22;42950;52.134;5.578;2022-12-19T16:23:06;9.50;99.90
23721;DHT22;42950;52.134;5.578;2022-12-19T16:25:44;9.60;99.90
23721;DHT22;42950;52.134;5.578;2022-12-19T16:28:27;9.60;99.90
23721;DHT22;42950;52.134;5.578;2022-12-19T16:30:58;9.60;99.90
23721;DHT22;42950;52.134;5.578;2022-12-19T16:33:26;9.60;99.90
23721;DHT22;42950;52.134;5.578;2022-12-19T16:35:53;9.60;99.90
23721;DHT22;42950;52.134;5.578;2022-12-19T16:38:20;9.60;99.90
23721;DHT22;42950;52.134;5.578;2022-12-19T16:40:47;9.60;99.90
23721;DHT22;42950;52.134;5.578;2022-12-19T16:43:16;9.60;99.90
23721;DHT22;42950;52.134;5.578;2022-12-19T16:45:43;9.60;99.90
23721;DHT22;42950;52.134;5.578;2022-12-19T16:48:21;9.70;99.90
23721;DHT22;42950;52.134;5.578;2022-12-19T16:50:48;9.70;99.90
23721;DHT22;42950;52.134;5.578;2022-12-19T16:53:14;9.70;99.90
23721;DHT22;42950;52.134;5.578;2022-12-19T16:55:40;9.70;99.90
23721;DHT22;42950;52.134;5.578;2022-12-19T16:58:07;9.70;99.90
23721;DHT22;42950;52.134;5.578;2022-12-19T17:00:36;9.70;99.90
23721;DHT22;42950;52.134;5.578;2022-12-19T17:03:40;9.80;99.90
23721;DHT22;42950;52.134;5.578;2022-12-19T17:06:18;9.80;99.90
23721;DHT22;42950;52.134;5.578;2022-12-19T17:08:44;9.90;99.90
23721;DHT22;42950;52.134;5.578;2022-12-19T17:11:24;9.90;99.90
23721;DHT22;42950;52.134;5.578;2022-12-19T17:13:54;9.90;99.90
23721;DHT22;42950;52.134;5.578;2022-12-19T17:16:21;9.90;99.90
23721;DHT22;42950;52.134;5.578;2022-12-19T17:18:47;9.90;99.90
23721;DHT22;42950;52.134;5.578;2022-12-19T17:21:16;9.90;99.90
23721;DHT22;42950;52.134;5.578;2022-12-19T17:23:42;9.90;99.90
23721;DHT22;42950;52.134;5.578;2022-12-19T17:26:07;9.80;99.90
23721;DHT22;42950;52.134;5.578;2022-12-19T17:28:33;9.90;99.90
23721;DHT22;42950;52.134;5.578;2022-12-19T17:31:03;9.90;99.90
23721;DHT22;42950;52.134;5.578;2022-12-19T17:33:35;9.90;99.90
23721;DHT22;42950;52.134;5.578;2022-12-19T17:36:02;9.90;99.90
23721;DHT22;42950;52.134;5.578;2022-12-19T17:38:28;9.90;99.90
23721;DHT22;42950;52.134;5.578;2022-12-19T17:40:54;9.90;99.90
23721;DHT22;42950;52.134;5.578;2022-12-19T17:43:20;10.00;99.90
23721;DHT22;42950;52.134;5.578;2022-12-19T17:45:46;10.00;99.90
23721;DHT22;42950;52.134;5.578;2022-12-19T17:48:31;9.90;99.90
23721;DHT22;42950;52.134;5.578;2022-12-19T17:50:57;10.00;99.90
23721;DHT22;42950;52.134;5.578;2022-12-19T17:53:23;10.00;99.90
23721;DHT22;42950;52.134;5.578;2022-12-19T17:55:50;10.00;99.90
23721;DHT22;42950;52.134;5.578;2022-12-19T17:58:15;10.00;99.90
23721;DHT22;42950;52.134;5.578;2022-12-19T18:00:42;10.00;99.90
23721;DHT22;42950;52.134;5.578;2022-12-19T18:03:22;9.90;99.90
23721;DHT22;42950;52.134;5.578;2022-12-19T18:05:48;10.00;99.90
23721;DHT22;42950;52.134;5.578;2022-12-19T18:08:24;10.00;99.90
23721;DHT22;42950;52.134;5.578;2022-12-19T18:10:50;10.10;99.90
23721;DHT22;42950;52.134;5.578;2022-12-19T18:13:16;10.00;99.90